Time;durP1;ratioP1;P1;durP2;ratioP2;P2;SDS_P1;SDS_P2;PMS_P1;PMS_P2;Temp;Humidity;BMP_temperature;BMP_pressure;BME280_temperature;BME280_humidity;BME280_pressure;Samples;Min_cycle;Max_cycle;Signal;HPM_P1;HPM_P2
2020/12/06 00:02:10;;;;;;;22.48;15.82;;;5.90;99.90;;;;;;5033404;28;20215;-74
2020/12/06 00:04:36;;;;;;;26.33;17.27;;;5.90;99.90;;;;;;5033051;28;20207;-77
2020/12/06 00:07:04;;;;;;;28.92;17.70;;;5.80;99.90;;;;;;5033304;28;20208;-75
2020/12/06 00:09:30;;;;;;;25.10;17.15;;;5.70;99.90;;;;;;5039087;28;20237;-77
2020/12/06 00:11:59;;;;;;;25.60;16.92;;;6.10;99.90;;;;;;5053363;28;20203;-76
2020/12/06 00:14:26;;;;;;;26.17;18.00;;;5.90;99.90;;;;;;5034176;28;20536;-76
2020/12/06 00:16:52;;;;;;;25.27;16.92;;;5.90;99.90;;;;;;5033752;28;20207;-76
2020/12/06 00:19:19;;;;;;;23.13;17.73;;;5.90;99.90;;;;;;5032688;28;20222;-75
2020/12/06 00:21:46;;;;;;;25.50;17.20;;;6.10;99.90;;;;;;5033411;28;20229;-75
2020/12/06 00:24:13;;;;;;;27.15;17.13;;;6.10;99.90;;;;;;5023338;28;20214;-76
2020/12/06 00:26:40;;;;;;;24.52;17.27;;;6.10;99.90;;;;;;5043903;28;20207;-76
2020/12/06 00:29:07;;;;;;;29.25;18.27;;;6.10;99.90;;;;;;5040413;28;20250;-76
2020/12/06 00:31:33;;;;;;;26.15;17.52;;;6.10;99.90;;;;;;5053082;28;20246;-76
2020/12/06 00:34:00;;;;;;;24.92;17.08;;;6.10;99.90;;;;;;5047534;28;20635;-76
2020/12/06 00:36:27;;;;;;;26.30;17.25;;;6.00;99.90;;;;;;5033254;28;20677;-76
2020/12/06 00:38:53;;;;;;;24.42;17.42;;;6.00;99.90;;;;;;5032489;28;20203;-76
2020/12/06 00:41:22;;;;;;;30.33;17.13;;;6.10;99.90;;;;;;5032863;28;20617;-76
2020/12/06 00:43:49;;;;;;;25.90;16.23;;;6.30;99.90;;;;;;5033088;28;20218;-75
2020/12/06 00:46:21;;;;;;;24.25;16.45;;;6.60;99.90;;;;;;5033129;28;20895;-76
2020/12/06 00:48:48;;;;;;;23.88;15.80;;;6.50;99.90;;;;;;5033129;28;20227;-76
2020/12/06 00:51:15;;;;;;;21.60;15.75;;;6.70;99.90;;;;;;5034038;28;20207;-76
2020/12/06 00:53:42;;;;;;;21.75;15.70;;;6.40;99.90;;;;;;5032605;28;20207;-75
2020/12/06 00:56:16;;;;;;;23.20;15.23;;;6.30;99.90;;;;;;5032675;28;20624;-75
2020/12/06 00:58:43;;;;;;;18.83;12.95;;;6.10;99.90;;;;;;5032547;28;20298;-75
2020/12/06 01:01:10;;;;;;;21.35;14.25;;;6.20;99.90;;;;;;5028816;28;20263;-75
2020/12/06 01:03:38;;;;;;;28.73;18.73;;;6.20;99.90;;;;;;5038800;28;20222;-75
2020/12/06 01:06:06;;;;;;;24.13;15.15;;;6.00;99.90;;;;;;5039223;28;20256;-75
2020/12/06 01:08:32;;;;;;;22.15;14.68;;;5.90;99.90;;;;;;5051884;28;20250;-75
2020/12/06 01:10:59;;;;;;;23.27;16.13;;;5.80;99.90;;;;;;5047444;28;20238;-75
2020/12/06 01:13:25;;;;;;;24.45;15.23;;;5.90;99.90;;;;;;5050654;28;20696;-75
2020/12/06 01:15:52;;;;;;;24.75;16.27;;;5.70;99.90;;;;;;5032435;28;20219;-75
2020/12/06 01:18:18;;;;;;;26.83;17.35;;;5.70;99.90;;;;;;5033165;28;20199;-75
2020/12/06 01:20:46;;;;;;;25.92;18.00;;;5.70;99.90;;;;;;5040810;28;20226;-75
2020/12/06 01:23:12;;;;;;;26.05;15.77;;;5.60;99.90;;;;;;5031713;28;20666;-75
2020/12/06 01:25:39;;;;;;;27.40;18.27;;;5.40;99.90;;;;;;5031865;28;20203;-75
2020/12/06 01:28:05;;;;;;;28.70;19.10;;;5.40;99.90;;;;;;5032060;28;20562;-75
2020/12/06 01:30:32;;;;;;;28.55;18.73;;;5.60;99.90;;;;;;5031857;28;20227;-75
2020/12/06 01:32:58;;;;;;;27.95;17.92;;;5.40;99.90;;;;;;5032362;28;20257;-75
2020/12/06 01:35:25;;;;;;;26.05;18.23;;;5.50;99.90;;;;;;5034002;28;20211;-75
2020/12/06 01:37:52;;;;;;;29.90;19.27;;;5.60;99.90;;;;;;5033471;28;20203;-75
2020/12/06 01:40:19;;;;;;;28.95;17.70;;;5.80;99.90;;;;;;5031965;28;20230;-75
2020/12/06 01:42:45;;;;;;;27.83;16.67;;;5.80;99.90;;;;;;5032080;28;20207;-75
2020/12/06 01:45:12;;;;;;;24.38;16.10;;;6.00;99.90;;;;;;5031770;28;20214;-74
2020/12/06 01:47:38;;;;;;;24.75;17.20;;;5.90;99.90;;;;;;5032115;28;20213;-75
2020/12/06 01:50:05;;;;;;;23.27;16.20;;;6.00;99.90;;;;;;5031123;28;20724;-74
2020/12/06 01:52:32;;;;;;;26.75;17.30;;;5.90;99.90;;;;;;5031838;28;20206;-75
2020/12/06 01:55:02;;;;;;;23.48;15.38;;;6.10;99.90;;;;;;5031914;28;20212;-75
2020/12/06 01:57:29;;;;;;;27.42;16.50;;;6.10;99.90;;;;;;5032041;28;20203;-74
2020/12/06 01:59:55;;;;;;;22.27;15.40;;;6.00;99.90;;;;;;5031364;28;20223;-74
2020/12/06 02:02:22;;;;;;;27.45;16.20;;;6.00;99.90;;;;;;5031409;28;20277;-74
2020/12/06 02:04:49;;;;;;;22.73;15.60;;;6.10;99.90;;;;;;5031763;28;20203;-75
2020/12/06 02:07:15;;;;;;;20.67;14.57;;;6.10;99.90;;;;;;5031680;28;20211;-75
2020/12/06 02:09:44;;;;;;;21.10;14.35;;;6.30;99.90;;;;;;5034297;28;20231;-75
2020/12/06 02:12:11;;;;;;;23.38;15.65;;;6.20;99.90;;;;;;5038924;28;20227;-75
2020/12/06 02:14:38;;;;;;;22.80;15.82;;;6.30;99.90;;;;;;5031151;28;20211;-75
2020/12/06 02:17:04;;;;;;;22.98;14.85;;;6.10;99.90;;;;;;5031367;28;20629;-75
2020/12/06 02:19:31;;;;;;;22.70;14.15;;;6.20;99.90;;;;;;5030330;28;20226;-75
2020/12/06 02:21:58;;;;;;;23.42;15.13;;;6.00;99.90;;;;;;5031120;28;20218;-75
2020/12/06 02:24:25;;;;;;;23.70;13.35;;;5.80;99.90;;;;;;5030852;28;20212;-75
2020/12/06 02:26:52;;;;;;;23.75;15.65;;;5.70;99.90;;;;;;5030672;28;20617;-75
2020/12/06 02:29:19;;;;;;;23.08;14.50;;;6.00;99.90;;;;;;5030553;28;20227;-75
2020/12/06 02:31:46;;;;;;;24.75;13.70;;;5.90;99.90;;;;;;5030888;28;20219;-75
2020/12/06 02:34:14;;;;;;;26.33;16.00;;;5.70;99.90;;;;;;5030583;28;20292;-75
2020/12/06 02:36:41;;;;;;;26.02;15.60;;;5.80;99.90;;;;;;5031016;28;20207;-75
2020/12/06 02:39:10;;;;;;;20.95;12.80;;;5.80;99.90;;;;;;5030026;28;20238;-75
2020/12/06 02:41:37;;;;;;;27.30;16.13;;;5.60;99.90;;;;;;5031152;28;20214;-75
2020/12/06 02:44:04;;;;;;;29.80;17.65;;;5.40;99.90;;;;;;5030564;28;20264;-75
2020/12/06 02:46:31;;;;;;;26.50;15.20;;;5.60;99.90;;;;;;5030785;28;20639;-75
2020/12/06 02:48:58;;;;;;;27.42;16.55;;;5.40;99.90;;;;;;5029637;28;20269;-75
2020/12/06 02:51:25;;;;;;;26.67;16.00;;;5.20;99.90;;;;;;5030396;28;20207;-75
2020/12/06 02:53:52;;;;;;;33.50;18.10;;;5.30;99.90;;;;;;5030393;28;20257;-75
2020/12/06 02:56:19;;;;;;;19.15;9.00;;;5.20;99.90;;;;;;5030544;28;20673;-74
2020/12/06 02:58:46;;;;;;;32.70;20.58;;;5.30;99.90;;;;;;5030488;28;20211;-75
2020/12/06 03:01:12;;;;;;;29.58;18.90;;;5.10;99.90;;;;;;5030190;28;20284;-75
2020/12/06 03:03:39;;;;;;;34.63;18.77;;;5.40;99.90;;;;;;5030234;28;20222;-75
2020/12/06 03:06:06;;;;;;;28.27;19.33;;;5.50;99.90;;;;;;5029977;28;20215;-75
2020/12/06 03:08:33;;;;;;;33.25;20.30;;;5.60;99.90;;;;;;5030049;28;20227;-75
2020/12/06 03:10:59;;;;;;;28.63;19.75;;;5.30;99.90;;;;;;5039289;28;20247;-75
2020/12/06 03:13:27;;;;;;;31.02;18.98;;;5.30;99.90;;;;;;5030186;28;20211;-75
2020/12/06 03:15:54;;;;;;;29.42;19.92;;;5.30;99.90;;;;;;5029815;28;20249;-75
2020/12/06 03:18:20;;;;;;;36.92;21.00;;;5.60;99.90;;;;;;5029586;28;20681;-75
2020/12/06 03:20:47;;;;;;;30.95;19.52;;;5.80;99.90;;;;;;5029294;28;20775;-74
2020/12/06 03:23:14;;;;;;;27.70;15.80;;;5.70;99.90;;;;;;5029322;28;20242;-74
2020/12/06 03:25:40;;;;;;;27.02;17.08;;;5.50;99.90;;;;;;5029559;28;20222;-76
2020/12/06 03:28:07;;;;;;;27.05;17.70;;;5.40;99.90;;;;;;5029431;28;20227;-75
2020/12/06 03:30:34;;;;;;;33.65;18.70;;;5.40;99.90;;;;;;5029057;28;20611;-74
2020/12/06 03:33:01;;;;;;;27.30;16.80;;;5.50;99.90;;;;;;5029305;28;20596;-74
2020/12/06 03:35:27;;;;;;;28.02;16.85;;;5.70;99.90;;;;;;5029471;28;20215;-76
2020/12/06 03:37:54;;;;;;;32.40;18.00;;;5.60;99.90;;;;;;5028975;28;20199;-74
2020/12/06 03:40:20;;;;;;;26.55;15.13;;;5.20;99.90;;;;;;5029305;28;20227;-74
2020/12/06 03:42:49;;;;;;;26.38;15.35;;;5.30;99.90;;;;;;5029179;28;20626;-74
2020/12/06 03:45:16;;;;;;;34.55;19.90;;;5.10;99.90;;;;;;5029233;28;20215;-74
2020/12/06 03:47:43;;;;;;;33.15;20.40;;;5.00;99.90;;;;;;5028899;28;20684;-75
2020/12/06 03:50:10;;;;;;;33.50;20.27;;;5.10;99.90;;;;;;5029072;28;20243;-75
2020/12/06 03:52:36;;;;;;;37.20;18.30;;;5.40;99.90;;;;;;5029743;28;20207;-74
2020/12/06 03:55:03;;;;;;;35.83;20.42;;;5.40;99.90;;;;;;5029768;28;20284;-76
2020/12/06 03:57:30;;;;;;;37.38;20.30;;;5.40;99.90;;;;;;5029353;28;20203;-74
2020/12/06 03:59:56;;;;;;;39.47;21.75;;;5.40;99.90;;;;;;5029172;28;20276;-74
2020/12/06 04:02:23;;;;;;;35.10;19.77;;;5.30;99.90;;;;;;5028690;28;20689;-74
2020/12/06 04:04:51;;;;;;;31.52;18.02;;;5.40;99.90;;;;;;5029510;28;20211;-75
2020/12/06 04:07:17;;;;;;;43.30;20.65;;;5.30;99.90;;;;;;5029167;28;20214;-76
2020/12/06 04:09:44;;;;;;;39.60;19.77;;;5.10;99.90;;;;;;5033074;28;20230;-76
2020/12/06 04:12:10;;;;;;;34.85;17.05;;;4.70;99.90;;;;;;5049006;28;20207;-75
2020/12/06 04:14:37;;;;;;;29.88;16.42;;;5.00;99.90;;;;;;5029105;28;20218;-76
2020/12/06 04:17:03;;;;;;;35.75;18.50;;;4.80;99.90;;;;;;5028759;28;20727;-75
2020/12/06 04:19:30;;;;;;;42.25;21.83;;;4.50;99.90;;;;;;5028599;28;20229;-76
2020/12/06 04:21:57;;;;;;;38.72;18.13;;;4.60;99.90;;;;;;5028880;28;20269;-76
2020/12/06 04:24:24;;;;;;;38.50;19.35;;;4.90;99.90;;;;;;5029148;28;20219;-75
2020/12/06 04:26:50;;;;;;;41.15;20.63;;;4.70;99.90;;;;;;5029238;28;20203;-76
2020/12/06 04:29:17;;;;;;;44.00;22.08;;;4.80;99.90;;;;;;5028937;28;20231;-75
2020/12/06 04:31:44;;;;;;;49.08;24.83;;;4.70;99.90;;;;;;5028266;28;20216;-75
2020/12/06 04:34:10;;;;;;;47.90;23.42;;;4.50;99.90;;;;;;5044125;28;20207;-75
2020/12/06 04:36:37;;;;;;;41.03;22.90;;;4.50;99.90;;;;;;5042729;28;20214;-75
2020/12/06 04:39:04;;;;;;;49.80;21.83;;;4.60;99.90;;;;;;5032644;28;20847;-75
2020/12/06 04:41:31;;;;;;;44.42;22.23;;;4.80;99.90;;;;;;5031945;28;20199;-75
2020/12/06 04:43:57;;;;;;;48.88;23.35;;;5.00;99.90;;;;;;5032900;28;20292;-75
2020/12/06 04:46:27;;;;;;;49.65;22.83;;;5.00;99.90;;;;;;5032548;28;20230;-75
2020/12/06 04:49:08;;;;;;;47.35;23.48;;;5.30;99.90;;;;;;5031844;28;20258;-75
2020/12/06 04:51:40;;;;;;;48.28;23.10;;;5.30;99.90;;;;;;5032708;28;20219;-75
2020/12/06 04:54:08;;;;;;;50.83;25.02;;;5.00;99.90;;;;;;5032327;28;20207;-75
2020/12/06 04:56:37;;;;;;;41.25;21.10;;;4.80;99.90;;;;;;5032061;28;20207;-74
2020/12/06 04:59:04;;;;;;;39.85;20.38;;;5.10;99.90;;;;;;5031735;28;20199;-74
2020/12/06 05:01:36;;;;;;;45.05;20.30;;;5.00;99.90;;;;;;5032497;28;20211;-75
2020/12/06 05:04:09;;;;;;;45.35;21.20;;;4.90;99.90;;;;;;5032111;28;20253;-76
2020/12/06 05:06:39;;;;;;;43.63;20.83;;;5.10;99.90;;;;;;5032146;28;20617;-74
2020/12/06 05:09:08;;;;;;;53.03;23.10;;;5.10;99.90;;;;;;5031038;28;20352;-75
2020/12/06 05:11:36;;;;;;;48.35;23.55;;;5.00;99.90;;;;;;5032282;28;20208;-75
2020/12/06 05:14:05;;;;;;;49.53;23.30;;;4.90;99.90;;;;;;5031796;28;20233;-75
2020/12/06 05:16:33;;;;;;;53.65;26.05;;;4.70;99.90;;;;;;5018060;28;20211;-75
2020/12/06 05:19:00;;;;;;;48.80;19.40;;;4.90;99.90;;;;;;5012737;28;20207;-75
2020/12/06 05:21:34;;;;;;;45.05;22.45;;;5.10;99.90;;;;;;5032016;28;20214;-74
2020/12/06 05:24:01;;;;;;;53.28;25.88;;;5.00;99.90;;;;;;5031343;28;20272;-75
2020/12/06 05:26:29;;;;;;;43.65;22.10;;;4.90;99.90;;;;;;5031986;28;20577;-74
2020/12/06 05:28:56;;;;;;;51.47;23.33;;;4.80;99.90;;;;;;5031035;28;20227;-74
2020/12/06 05:31:23;;;;;;;45.42;22.85;;;5.00;99.90;;;;;;5031251;28;20218;-74
2020/12/06 05:33:49;;;;;;;46.05;21.42;;;4.90;99.90;;;;;;5031583;28;20210;-74
2020/12/06 05:36:16;;;;;;;46.80;23.33;;;4.70;99.90;;;;;;5031267;28;20229;-74
2020/12/06 05:38:43;;;;;;;44.08;23.23;;;5.10;99.90;;;;;;5031408;28;20208;-74
2020/12/06 05:41:10;;;;;;;49.15;23.15;;;4.90;99.90;;;;;;5031359;28;20284;-74
2020/12/06 05:43:38;;;;;;;51.35;23.13;;;4.80;99.90;;;;;;5031203;28;20203;-74
2020/12/06 05:46:06;;;;;;;43.22;23.02;;;5.30;99.90;;;;;;5031254;28;20251;-74
2020/12/06 05:48:33;;;;;;;48.90;23.30;;;5.20;99.90;;;;;;5030897;28;20207;-74
2020/12/06 05:51:00;;;;;;;44.42;21.73;;;5.00;99.90;;;;;;5030873;28;20238;-74
2020/12/06 05:53:28;;;;;;;45.53;23.83;;;5.20;99.90;;;;;;5031318;28;20642;-74
2020/12/06 05:56:00;;;;;;;40.72;21.13;;;5.40;99.90;;;;;;5031427;28;20207;-74
2020/12/06 05:58:27;;;;;;;38.05;19.98;;;5.40;99.90;;;;;;5030580;28;20211;-73
2020/12/06 06:00:57;;;;;;;40.05;21.27;;;5.50;99.90;;;;;;5030542;28;20224;-74
2020/12/06 06:03:28;;;;;;;35.90;17.60;;;5.20;99.90;;;;;;5030847;28;20222;-76
2020/12/06 06:05:56;;;;;;;41.38;22.35;;;5.10;99.90;;;;;;5011361;28;20235;-74
2020/12/06 06:08:26;;;;;;;40.03;20.75;;;5.10;99.90;;;;;;5010863;28;20262;-75
2020/12/06 06:11:17;;;;;;;43.60;23.42;;;4.90;99.90;;;;;;5044064;28;20249;-75
2020/12/06 06:13:51;;;;;;;37.83;17.77;;;4.90;99.90;;;;;;5029833;28;20295;-74
2020/12/06 06:16:20;;;;;;;42.95;21.55;;;5.10;99.90;;;;;;5031013;28;20744;-74
2020/12/06 06:18:48;;;;;;;40.58;20.45;;;5.30;99.90;;;;;;5029662;28;20287;-75
2020/12/06 06:21:16;;;;;;;41.28;21.80;;;5.20;99.90;;;;;;5030512;28;20211;-74
2020/12/06 06:23:46;;;;;;;43.15;21.25;;;5.20;99.90;;;;;;5030783;28;20774;-74
2020/12/06 06:26:16;;;;;;;42.55;19.88;;;5.00;99.90;;;;;;5030914;28;20203;-74
2020/12/06 06:28:44;;;;;;;39.72;21.95;;;5.10;99.90;;;;;;5030079;28;20206;-75
2020/12/06 06:31:11;;;;;;;39.72;20.95;;;5.10;99.90;;;;;;5029986;28;20239;-74
2020/12/06 06:33:40;;;;;;;40.97;21.17;;;5.20;99.90;;;;;;5030115;28;20203;-75
2020/12/06 06:36:08;;;;;;;39.85;20.80;;;5.00;99.90;;;;;;5030452;28;20207;-75
2020/12/06 06:38:39;;;;;;;37.63;20.38;;;5.00;99.90;;;;;;5029947;28;20225;-75
2020/12/06 06:41:07;;;;;;;47.58;23.02;;;4.80;99.90;;;;;;5030365;28;20248;-74
2020/12/06 06:43:35;;;;;;;40.00;22.60;;;4.90;99.90;;;;;;5030302;28;20685;-75
2020/12/06 06:46:15;;;;;;;45.00;24.15;;;5.10;99.90;;;;;;5029887;28;20685;-75
2020/12/06 06:48:46;;;;;;;43.90;22.42;;;4.80;99.90;;;;;;5029614;28;20206;-75
2020/12/06 06:51:19;;;;;;;46.67;23.33;;;4.90;99.90;;;;;;5030008;28;20241;-75
2020/12/06 06:53:45;;;;;;;50.05;24.70;;;4.90;99.90;;;;;;5030184;28;20613;-75
2020/12/06 06:56:13;;;;;;;48.97;24.83;;;5.00;99.90;;;;;;5030419;28;20207;-75
2020/12/06 06:58:39;;;;;;;45.25;23.10;;;5.10;99.90;;;;;;5028982;28;20204;-75
2020/12/06 07:01:25;;;;;;;46.20;22.50;;;4.80;99.90;;;;;;5029577;28;20674;-75
2020/12/06 07:03:54;;;;;;;43.15;21.13;;;4.90;99.90;;;;;;5020023;28;20200;-75
2020/12/06 07:06:46;;;;;;;48.70;22.98;;;4.90;99.90;;;;;;5012273;28;20212;-75
2020/12/06 07:09:13;;;;;;;52.08;24.25;;;4.90;99.90;;;;;;5021174;28;20318;-75
2020/12/06 07:11:40;;;;;;;44.75;22.08;;;5.20;99.90;;;;;;5045492;28;20207;-74
2020/12/06 07:14:06;;;;;;;48.72;23.27;;;5.00;99.90;;;;;;5030098;28;20207;-74
2020/12/06 07:16:33;;;;;;;49.78;22.88;;;5.20;99.90;;;;;;5029915;28;20199;-75
2020/12/06 07:19:01;;;;;;;45.13;23.25;;;4.90;99.90;;;;;;5029112;28;20211;-74
2020/12/06 07:21:32;;;;;;;45.30;21.95;;;5.00;99.90;;;;;;5029429;28;20406;-74
2020/12/06 07:24:00;;;;;;;45.10;20.58;;;5.20;99.90;;;;;;5029832;28;20206;-74
2020/12/06 07:26:27;;;;;;;45.47;22.40;;;5.40;99.90;;;;;;5029862;28;20574;-74
2020/12/06 07:28:53;;;;;;;44.33;21.10;;;5.10;99.90;;;;;;5020976;28;20418;-74
2020/12/06 07:31:20;;;;;;;46.67;22.17;;;5.20;99.90;;;;;;5009966;28;20319;-74
2020/12/06 07:33:46;;;;;;;46.38;22.67;;;5.30;99.90;;;;;;5025614;28;20237;-76
2020/12/06 07:36:15;;;;;;;46.78;21.33;;;5.00;99.90;;;;;;5021887;28;20208;-74
2020/12/06 07:38:41;;;;;;;41.70;21.67;;;5.10;99.90;;;;;;5010628;28;20603;-74
2020/12/06 07:41:08;;;;;;;43.22;21.42;;;5.10;99.90;;;;;;5029734;28;20219;-74
2020/12/06 07:43:34;;;;;;;49.42;22.73;;;5.20;99.90;;;;;;5029932;28;20626;-74
2020/12/06 07:46:17;;;;;;;42.85;22.00;;;5.40;99.90;;;;;;5029725;28;20268;-74
2020/12/06 07:48:44;;;;;;;46.05;19.90;;;5.30;99.90;;;;;;5027408;28;20333;-76
2020/12/06 07:51:10;;;;;;;50.83;22.25;;;5.20;99.90;;;;;;5029793;28;20227;-75
2020/12/06 07:53:49;;;;;;;31.83;17.08;;;5.30;99.90;;;;;;5026208;28;20206;-74
2020/12/06 07:56:21;;;;;;;45.25;19.20;;;5.10;99.90;;;;;;5010480;28;20211;-75
2020/12/06 07:59:15;;;;;;;34.13;17.75;;;5.30;99.90;;;;;;5029449;28;20210;-75
2020/12/06 08:01:42;;;;;;;39.58;18.83;;;5.10;99.90;;;;;;5021571;28;20293;-76
2020/12/06 08:04:12;;;;;;;38.45;18.65;;;5.10;99.90;;;;;;5028658;28;20211;-75
2020/12/06 08:06:44;;;;;;;42.65;19.60;;;5.30;99.90;;;;;;5044816;28;20209;-75
2020/12/06 08:09:13;;;;;;;44.45;20.67;;;5.30;99.90;;;;;;5046157;28;20312;-75
2020/12/06 08:11:50;;;;;;;43.47;19.88;;;5.10;99.90;;;;;;5053158;28;20213;-75
2020/12/06 08:14:20;;;;;;;44.03;19.60;;;5.10;99.90;;;;;;5042613;28;20203;-76
2020/12/06 08:16:57;;;;;;;47.58;20.38;;;5.30;99.90;;;;;;5032940;28;20226;-75
2020/12/06 08:19:25;;;;;;;48.05;19.27;;;5.40;99.90;;;;;;5032117;28;20215;-75
2020/12/06 08:21:51;;;;;;;42.03;19.55;;;5.30;99.90;;;;;;5032660;28;20211;-75
2020/12/06 08:24:23;;;;;;;36.45;17.98;;;5.50;99.90;;;;;;5032821;28;20225;-75
2020/12/06 08:26:50;;;;;;;39.80;17.35;;;5.30;99.90;;;;;;5033170;28;20211;-76
2020/12/06 08:29:17;;;;;;;43.58;18.88;;;5.40;99.90;;;;;;5028007;28;20234;-76
2020/12/06 08:31:45;;;;;;;38.55;17.58;;;5.60;99.90;;;;;;5039560;28;20210;-75
2020/12/06 08:34:13;;;;;;;33.63;17.35;;;5.50;99.90;;;;;;5048990;28;20322;-75
2020/12/06 08:36:40;;;;;;;37.08;17.10;;;5.40;99.90;;;;;;5032585;28;20265;-75
2020/12/06 08:39:17;;;;;;;39.92;17.73;;;5.60;99.90;;;;;;5032418;28;20207;-76
2020/12/06 08:41:45;;;;;;;34.38;15.63;;;5.50;99.90;;;;;;5032482;28;20302;-75
2020/12/06 08:44:11;;;;;;;40.75;17.42;;;5.50;99.90;;;;;;5032383;28;20283;-76
2020/12/06 08:46:48;;;;;;;37.97;17.52;;;5.30;99.90;;;;;;5031860;28;20674;-76
2020/12/06 08:49:16;;;;;;;36.83;15.73;;;5.40;99.90;;;;;;5031918;28;20226;-75
2020/12/06 08:51:49;;;;;;;33.63;16.48;;;5.30;99.90;;;;;;5031908;28;20203;-75
2020/12/06 08:54:15;;;;;;;40.42;16.70;;;5.60;99.90;;;;;;5032163;28;20218;-75
2020/12/06 08:56:43;;;;;;;33.80;16.33;;;5.90;99.90;;;;;;5032481;28;20211;-74
2020/12/06 08:59:13;;;;;;;35.08;17.27;;;5.80;99.90;;;;;;5031828;28;20647;-81
2020/12/06 09:01:48;;;;;;;36.30;15.43;;;5.90;99.90;;;;;;5024861;28;20302;-75
2020/12/06 09:04:14;;;;;;;29.67;15.25;;;5.80;99.90;;;;;;5016666;28;20207;-77
2020/12/06 09:06:41;;;;;;;23.00;12.23;;;5.80;99.90;;;;;;5032558;28;20206;-79
2020/12/06 09:09:07;;;;;;;24.77;14.10;;;6.00;99.90;;;;;;5031435;28;20211;-78
2020/12/06 09:11:34;;;;;;;25.85;12.35;;;6.20;99.90;;;;;;5032761;28;20203;-77
2020/12/06 09:14:02;;;;;;;21.70;11.95;;;5.90;99.90;;;;;;5032276;28;20210;-78
2020/12/06 09:16:28;;;;;;;23.05;12.50;;;5.90;99.90;;;;;;5032767;28;20211;-78
2020/12/06 09:18:55;;;;;;;23.63;12.90;;;6.10;99.90;;;;;;5036943;28;20207;-75
2020/12/06 09:21:21;;;;;;;25.80;13.82;;;6.00;99.90;;;;;;5035912;28;20203;-77
2020/12/06 09:23:48;;;;;;;30.40;14.43;;;6.00;99.90;;;;;;5038110;28;20199;-77
2020/12/06 09:26:15;;;;;;;23.60;12.15;;;6.00;99.90;;;;;;5039083;28;20211;-78
2020/12/06 09:28:41;;;;;;;20.65;11.18;;;6.30;99.90;;;;;;5037882;28;20203;-78
2020/12/06 09:31:09;;;;;;;22.17;11.60;;;6.10;99.90;;;;;;5037782;28;20361;-77
2020/12/06 09:33:36;;;;;;;21.17;12.05;;;6.30;99.90;;;;;;5032217;28;20222;-77
2020/12/06 09:36:04;;;;;;;20.95;10.80;;;6.10;99.90;;;;;;5032585;28;20257;-82
2020/12/06 09:38:31;;;;;;;22.20;11.80;;;6.10;99.90;;;;;;5033522;28;20203;-76
2020/12/06 09:40:58;;;;;;;21.80;10.45;;;6.10;99.90;;;;;;5032988;28;20230;-76
2020/12/06 09:43:24;;;;;;;20.88;10.85;;;6.00;99.90;;;;;;5033318;28;20211;-75
2020/12/06 09:45:51;;;;;;;18.55;9.20;;;6.00;99.90;;;;;;5032647;28;20226;-75
2020/12/06 09:48:19;;;;;;;17.60;9.77;;;6.40;99.90;;;;;;5031894;28;20219;-76
2020/12/06 09:50:45;;;;;;;18.17;11.05;;;6.10;99.90;;;;;;5032752;28;20269;-74
2020/12/06 09:53:12;;;;;;;17.35;10.73;;;6.30;99.90;;;;;;5032061;28;20207;-74
2020/12/06 09:55:40;;;;;;;19.83;9.63;;;6.20;99.90;;;;;;5033387;28;20203;-76
2020/12/06 09:58:06;;;;;;;17.40;10.20;;;6.30;99.90;;;;;;5031799;28;20291;-75
2020/12/06 10:00:33;;;;;;;16.80;10.02;;;6.30;99.90;;;;;;5031805;28;20227;-76
2020/12/06 10:03:00;;;;;;;16.95;9.38;;;6.20;99.90;;;;;;5031588;28;20214;-76
2020/12/06 10:05:27;;;;;;;17.65;9.35;;;6.30;99.90;;;;;;5031166;28;20212;-75
2020/12/06 10:07:53;;;;;;;19.85;10.13;;;6.30;99.90;;;;;;5031375;28;20211;-75
2020/12/06 10:10:20;;;;;;;18.52;9.05;;;6.10;99.90;;;;;;5040091;28;20230;-75
2020/12/06 10:12:47;;;;;;;15.93;8.75;;;6.20;99.90;;;;;;5034093;28;20231;-75
2020/12/06 10:15:13;;;;;;;14.38;8.30;;;6.30;99.90;;;;;;5031420;28;20208;-76
2020/12/06 10:17:40;;;;;;;14.40;8.18;;;6.70;99.90;;;;;;5030560;28;20207;-76
2020/12/06 10:20:10;;;;;;;13.57;7.78;;;6.70;99.90;;;;;;5031264;28;20558;-75
2020/12/06 10:22:37;;;;;;;14.07;8.85;;;6.70;99.90;;;;;;5031035;28;20218;-75
2020/12/06 10:25:04;;;;;;;13.48;8.60;;;6.30;99.90;;;;;;5031135;28;20439;-75
2020/12/06 10:27:31;;;;;;;14.50;8.48;;;6.40;99.90;;;;;;5030712;28;20249;-75
2020/12/06 10:29:57;;;;;;;14.13;8.35;;;6.40;99.90;;;;;;5030497;28;20231;-75
2020/12/06 10:32:24;;;;;;;17.85;9.05;;;6.40;99.90;;;;;;5030328;28;20223;-74
2020/12/06 10:34:50;;;;;;;12.75;8.98;;;6.60;99.90;;;;;;5030926;28;20265;-76
2020/12/06 10:37:17;;;;;;;12.73;8.00;;;6.50;99.90;;;;;;5053300;22;20207;-77
2020/12/06 10:39:44;;;;;;;14.02;8.60;;;6.60;99.90;;;;;;5092081;28;20193;-77
2020/12/06 10:42:11;;;;;;;11.10;7.70;;;6.50;99.90;;;;;;5092070;28;20730;-76
2020/12/06 10:44:38;;;;;;;13.27;7.28;;;6.70;99.90;;;;;;5090129;28;20202;-76
2020/12/06 10:47:04;;;;;;;14.80;7.85;;;6.90;99.90;;;;;;5092306;28;20613;-76
2020/12/06 10:49:31;;;;;;;11.88;6.82;;;7.10;99.90;;;;;;5092454;28;20217;-77
2020/12/06 10:51:57;;;;;;;13.55;8.23;;;6.90;99.90;;;;;;5093705;28;20204;-77
2020/12/06 10:54:24;;;;;;;14.07;8.52;;;6.70;99.90;;;;;;5090458;28;20205;-76
2020/12/06 10:56:51;;;;;;;14.75;8.75;;;6.50;99.90;;;;;;5071259;28;20206;-77
2020/12/06 10:59:18;;;;;;;13.63;8.07;;;6.50;99.90;;;;;;5072205;28;20208;-77
2020/12/06 11:01:44;;;;;;;14.25;7.45;;;6.20;99.90;;;;;;5071572;28;20556;-76
2020/12/06 11:04:11;;;;;;;13.50;7.72;;;6.40;99.90;;;;;;5071729;28;20194;-76
2020/12/06 11:06:38;;;;;;;12.77;7.65;;;6.20;99.90;;;;;;5071418;28;20723;-77
2020/12/06 11:09:04;;;;;;;10.00;6.80;;;6.60;99.90;;;;;;5071693;28;20708;-76
2020/12/06 11:11:31;;;;;;;11.40;7.30;;;6.80;99.90;;;;;;5090222;28;20225;-77
2020/12/06 11:13:58;;;;;;;12.80;7.63;;;6.70;99.90;;;;;;5092932;28;20218;-75
2020/12/06 11:16:24;;;;;;;11.75;7.80;;;6.90;99.90;;;;;;5098939;28;20251;-77
2020/12/06 11:18:51;;;;;;;11.35;7.10;;;6.90;99.90;;;;;;5101292;28;20233;-77
2020/12/06 11:21:19;;;;;;;13.95;7.40;;;7.20;99.90;;;;;;5096403;28;20201;-77
2020/12/06 11:23:46;;;;;;;17.08;10.43;;;6.90;99.90;;;;;;5105130;28;20213;-76
2020/12/06 11:26:13;;;;;;;12.15;7.88;;;6.60;99.90;;;;;;5104093;28;20215;-76
2020/12/06 11:28:40;;;;;;;11.90;7.75;;;6.40;99.90;;;;;;5093844;28;20294;-77
2020/12/06 11:31:07;;;;;;;13.02;6.72;;;6.70;99.90;;;;;;5092559;28;20225;-78
2020/12/06 11:33:34;;;;;;;13.90;7.35;;;6.80;99.90;;;;;;5089740;28;20198;-75
2020/12/06 11:36:00;;;;;;;9.70;6.15;;;6.80;99.90;;;;;;5080517;28;20213;-75
2020/12/06 11:38:27;;;;;;;10.60;6.72;;;6.60;99.90;;;;;;5070767;28;20233;-78
2020/12/06 11:40:53;;;;;;;11.73;7.85;;;6.30;99.90;;;;;;5071042;28;20206;-76
2020/12/06 11:43:20;;;;;;;12.25;7.28;;;6.30;99.90;;;;;;5071761;28;20267;-77
2020/12/06 11:45:46;;;;;;;9.60;6.30;;;6.40;99.90;;;;;;5075295;28;20205;-78
2020/12/06 11:48:14;;;;;;;11.05;7.32;;;6.50;99.90;;;;;;5075787;28;20213;-77
2020/12/06 11:50:40;;;;;;;11.13;6.75;;;6.40;99.90;;;;;;5074446;28;20229;-77
2020/12/06 11:53:07;;;;;;;12.13;7.53;;;6.50;99.90;;;;;;5074618;28;20206;-77
2020/12/06 11:55:33;;;;;;;10.52;8.07;;;6.30;99.90;;;;;;5074731;28;20672;-77
2020/12/06 11:58:00;;;;;;;12.55;7.18;;;6.30;99.90;;;;;;5074641;28;20726;-77
2020/12/06 12:00:27;;;;;;;12.68;6.53;;;6.40;99.90;;;;;;5075637;28;20206;-80
2020/12/06 12:02:53;;;;;;;11.88;5.93;;;6.70;99.90;;;;;;5080239;28;20231;-75
2020/12/06 12:05:21;;;;;;;10.45;5.50;;;6.50;99.90;;;;;;5065321;28;20202;-75
2020/12/06 12:07:47;;;;;;;9.23;5.90;;;6.60;99.90;;;;;;5076434;28;20715;-76
2020/12/06 12:10:15;;;;;;;8.15;5.13;;;6.60;99.90;;;;;;5085159;28;20228;-77
2020/12/06 12:12:42;;;;;;;8.20;5.57;;;6.90;99.90;;;;;;5093405;28;20197;-78
2020/12/06 12:15:09;;;;;;;6.65;4.57;;;6.80;99.90;;;;;;5075341;28;20577;-78
2020/12/06 12:17:35;;;;;;;7.35;5.07;;;7.00;99.90;;;;;;5077801;28;20222;-79
2020/12/06 12:20:03;;;;;;;9.90;6.00;;;6.90;99.90;;;;;;5080174;28;20194;-80
2020/12/06 12:22:30;;;;;;;8.45;5.20;;;6.90;99.90;;;;;;5089048;28;20722;-83
2020/12/06 12:24:57;;;;;;;9.43;5.93;;;6.60;99.90;;;;;;5083849;28;20210;-78
2020/12/06 12:27:23;;;;;;;8.27;5.60;;;6.80;99.90;;;;;;5084757;28;20761;-78
2020/12/06 12:29:50;;;;;;;6.95;4.88;;;6.80;99.90;;;;;;5091438;28;20233;-78
2020/12/06 12:32:17;;;;;;;7.88;5.13;;;6.70;99.90;;;;;;5091994;28;20578;-79
2020/12/06 12:34:43;;;;;;;6.28;4.68;;;7.00;99.90;;;;;;5087068;28;20209;-80
2020/12/06 12:37:10;;;;;;;7.28;5.43;;;6.90;99.90;;;;;;5085923;28;20276;-79
2020/12/06 12:39:38;;;;;;;6.68;5.00;;;6.70;99.90;;;;;;5082946;28;20284;-78
2020/12/06 12:42:04;;;;;;;7.97;5.45;;;6.80;99.90;;;;;;5083704;28;20213;-77
2020/12/06 12:44:31;;;;;;;7.00;4.95;;;7.30;99.90;;;;;;5086186;28;20292;-76